Terminal Aerodrome Forecast
Issued by NWS

Home | Current Version | Previous Version | Text Only | Print | Product List | Glossary On
Versions: 1 2 3 4 5 6 7 8 9 10 11 12 13 14 15 16
899
FTUS43 KPAH 270520
TAFCGI
TAF
KCGI 270520Z 2706/2806 00000KT P6SM BKN250
     FM271000 14006KT 6SM -SHRA OVC050
      TEMPO 2710/2714 3SM TSRA BKN040CB
     FM271400 16007KT P6SM BKN035
     FM271800 21008KT P6SM VCTS BKN045CB
     FM280100 34004KT P6SM BKN035=

USA.gov is the U.S. government's official web portal to all federal, state and local government web resources and services.